sensor_id;sensor_type;location;lat;lon;timestamp;pressure;altitude;pressure_sealevel;temperature;humidity
5753;BME280;2901;42.140;24.760;2023-04-01T00:01:03;98642.97;;;11.76;93.92
5753;BME280;2901;42.140;24.760;2023-04-01T00:03:29;98635.94;;;11.81;93.61
5753;BME280;2901;42.140;24.760;2023-04-01T00:05:57;98631.66;;;11.79;94.26
5753;BME280;2901;42.140;24.760;2023-04-01T00:08:23;98612.91;;;11.68;94.34
5753;BME280;2901;42.140;24.760;2023-04-01T00:10:49;98617.31;;;11.64;94.58
5753;BME280;2901;42.140;24.760;2023-04-01T00:13:15;98624.13;;;11.68;94.79
5753;BME280;2901;42.140;24.760;2023-04-01T00:15:41;98633.56;;;11.72;94.89
5753;BME280;2901;42.140;24.760;2023-04-01T00:18:06;98630.06;;;11.75;94.97
5753;BME280;2901;42.140;24.760;2023-04-01T00:20:33;98629.28;;;11.71;95.26
5753;BME280;2901;42.140;24.760;2023-04-01T00:22:58;98632.56;;;11.78;94.67
5753;BME280;2901;42.140;24.760;2023-04-01T00:25:24;98627.91;;;11.90;93.73
5753;BME280;2901;42.140;24.760;2023-04-01T00:27:49;98637.16;;;12.01;93.49
5753;BME280;2901;42.140;24.760;2023-04-01T00:30:15;98643.91;;;12.08;93.13
5753;BME280;2901;42.140;24.760;2023-04-01T00:32:40;98635.97;;;12.12;92.98
5753;BME280;2901;42.140;24.760;2023-04-01T00:35:06;98635.06;;;12.15;92.80
5753;BME280;2901;42.140;24.760;2023-04-01T00:37:34;98634.13;;;12.17;92.77
5753;BME280;2901;42.140;24.760;2023-04-01T00:40:00;98627.97;;;12.21;92.31
5753;BME280;2901;42.140;24.760;2023-04-01T00:42:25;98634.91;;;12.21;92.57
5753;BME280;2901;42.140;24.760;2023-04-01T00:44:53;98638.47;;;12.17;93.57
5753;BME280;2901;42.140;24.760;2023-04-01T00:47:19;98631.72;;;12.11;93.35
5753;BME280;2901;42.140;24.760;2023-04-01T00:49:49;98621.44;;;12.07;92.72
5753;BME280;2901;42.140;24.760;2023-04-01T00:52:19;98634.91;;;12.21;92.55
5753;BME280;2901;42.140;24.760;2023-04-01T00:54:50;98620.97;;;12.25;91.89
5753;BME280;2901;42.140;24.760;2023-04-01T00:57:35;98629.56;;;12.25;92.56
5753;BME280;2901;42.140;24.760;2023-04-01T01:00:05;98627.97;;;12.21;92.54
5753;BME280;2901;42.140;24.760;2023-04-01T01:02:32;98622.81;;;12.20;92.90
5753;BME280;2901;42.140;24.760;2023-04-01T01:04:58;98619.53;;;12.13;92.97
5753;BME280;2901;42.140;24.760;2023-04-01T01:07:38;98611.81;;;12.10;92.83
5753;BME280;2901;42.140;24.760;2023-04-01T01:10:19;98620.09;;;12.24;92.75
5753;BME280;2901;42.140;24.760;2023-04-01T01:15:24;98618.03;;;12.35;92.24
5753;BME280;2901;42.140;24.760;2023-04-01T01:31:37;98616.50;;;12.28;92.72
5753;BME280;2901;42.140;24.760;2023-04-01T01:36:57;98613.91;;;12.28;91.93
5753;BME280;2901;42.140;24.760;2023-04-01T01:39:28;98610.44;;;12.29;91.99
5753;BME280;2901;42.140;24.760;2023-04-01T01:42:01;98605.25;;;12.29;92.28
5753;BME280;2901;42.140;24.760;2023-04-01T01:44:29;98604.53;;;12.24;91.62
5753;BME280;2901;42.140;24.760;2023-04-01T01:46:56;98613.03;;;12.29;92.04
5753;BME280;2901;42.140;24.760;2023-04-01T01:49:22;98596.59;;;12.29;92.24
5753;BME280;2901;42.140;24.760;2023-04-01T01:51:48;98596.66;;;12.27;91.80
5753;BME280;2901;42.140;24.760;2023-04-01T01:54:17;98592.16;;;12.32;91.69
5753;BME280;2901;42.140;24.760;2023-04-01T01:56:45;98581.69;;;12.35;92.13
5753;BME280;2901;42.140;24.760;2023-04-01T01:59:13;98578.22;;;12.36;91.03
5753;BME280;2901;42.140;24.760;2023-04-01T02:01:42;98571.41;;;12.32;91.55
5753;BME280;2901;42.140;24.760;2023-04-01T02:04:11;98574.81;;;12.34;91.92
5753;BME280;2901;42.140;24.760;2023-04-01T02:06:41;98574.00;;;12.32;91.79
5753;BME280;2901;42.140;24.760;2023-04-01T02:09:08;98561.09;;;12.31;91.48
5753;BME280;2901;42.140;24.760;2023-04-01T02:11:56;98564.44;;;12.34;91.25
5753;BME280;2901;42.140;24.760;2023-04-01T02:14:28;98568.09;;;12.27;91.35
5753;BME280;2901;42.140;24.760;2023-04-01T02:17:02;98558.03;;;12.15;92.09
5753;BME280;2901;42.140;24.760;2023-04-01T02:19:33;98570.19;;;12.15;91.87
5753;BME280;2901;42.140;24.760;2023-04-01T02:22:02;98581.47;;;12.12;91.69
5753;BME280;2901;42.140;24.760;2023-04-01T02:24:31;98590.38;;;12.04;92.08
5753;BME280;2901;42.140;24.760;2023-04-01T02:26:58;98592.72;;;11.82;92.13
5753;BME280;2901;42.140;24.760;2023-04-01T02:29:26;98599.06;;;11.69;92.84
5753;BME280;2901;42.140;24.760;2023-04-01T02:31:52;98584.63;;;11.59;92.05
5753;BME280;2901;42.140;24.760;2023-04-01T02:34:20;98575.41;;;11.47;92.44
5753;BME280;2901;42.140;24.760;2023-04-01T02:36:47;98566.00;;;11.43;92.64
5753;BME280;2901;42.140;24.760;2023-04-01T02:39:13;98559.22;;;11.37;93.49
5753;BME280;2901;42.140;24.760;2023-04-01T02:41:43;98553.03;;;11.43;93.68
5753;BME280;2901;42.140;24.760;2023-04-01T02:44:10;98561.66;;;11.43;93.09
5753;BME280;2901;42.140;24.760;2023-04-01T02:46:36;98565.09;;;11.45;93.59
5753;BME280;2901;42.140;24.760;2023-04-01T02:49:02;98566.84;;;11.43;94.04
5753;BME280;2901;42.140;24.760;2023-04-01T02:51:27;98574.78;;;11.37;94.41
5753;BME280;2901;42.140;24.760;2023-04-01T02:53:53;98572.25;;;11.34;95.65
5753;BME280;2901;42.140;24.760;2023-04-01T02:56:18;98565.59;;;11.24;95.89
5753;BME280;2901;42.140;24.760;2023-04-01T02:58:45;98559.09;;;11.08;97.22
5753;BME280;2901;42.140;24.760;2023-04-01T03:01:11;98557.38;;;11.07;97.60
5753;BME280;2901;42.140;24.760;2023-04-01T03:03:37;98556.56;;;11.05;96.76
5753;BME280;2901;42.140;24.760;2023-04-01T03:06:10;98561.88;;;10.99;97.49
5753;BME280;2901;42.140;24.760;2023-04-01T03:08:37;98553.56;;;10.86;97.47
5753;BME280;2901;42.140;24.760;2023-04-01T03:11:02;98564.81;;;10.84;97.56
5753;BME280;2901;42.140;24.760;2023-04-01T03:13:28;98570.22;;;10.75;97.55
5753;BME280;2901;42.140;24.760;2023-04-01T03:15:53;98571.88;;;10.77;97.53
5753;BME280;2901;42.140;24.760;2023-04-01T03:18:19;98567.13;;;10.58;97.88
5753;BME280;2901;42.140;24.760;2023-04-01T03:20:45;98574.88;;;10.59;97.88
5753;BME280;2901;42.140;24.760;2023-04-01T03:23:10;98572.22;;;10.61;97.07
5753;BME280;2901;42.140;24.760;2023-04-01T03:25:36;98558.56;;;10.56;96.77
5753;BME280;2901;42.140;24.760;2023-04-01T03:28:01;98544.59;;;10.63;96.64
5753;BME280;2901;42.140;24.760;2023-04-01T03:30:27;98542.09;;;10.58;95.88
5753;BME280;2901;42.140;24.760;2023-04-01T03:32:53;98552.50;;;10.57;95.60
5753;BME280;2901;42.140;24.760;2023-04-01T03:35:18;98556.81;;;10.56;95.84
5753;BME280;2901;42.140;24.760;2023-04-01T03:37:44;98547.41;;;10.54;95.95
5753;BME280;2901;42.140;24.760;2023-04-01T03:40:10;98543.94;;;10.53;96.29
5753;BME280;2901;42.140;24.760;2023-04-01T03:42:35;98528.50;;;10.49;95.97
5753;BME280;2901;42.140;24.760;2023-04-01T03:45:02;98526.72;;;10.51;96.12
5753;BME280;2901;42.140;24.760;2023-04-01T03:47:28;98529.38;;;10.48;95.84
5753;BME280;2901;42.140;24.760;2023-04-01T03:49:53;98530.44;;;10.40;95.86
5753;BME280;2901;42.140;24.760;2023-04-01T03:52:19;98536.34;;;10.46;95.72
5753;BME280;2901;42.140;24.760;2023-04-01T03:54:44;98540.66;;;10.45;95.99
5753;BME280;2901;42.140;24.760;2023-04-01T03:57:10;98535.47;;;10.45;96.20
5753;BME280;2901;42.140;24.760;2023-04-01T03:59:36;98530.28;;;10.47;97.04
5753;BME280;2901;42.140;24.760;2023-04-01T04:02:01;98532.94;;;10.44;96.83
5753;BME280;2901;42.140;24.760;2023-04-01T04:04:27;98520.09;;;10.37;96.95
5753;BME280;2901;42.140;24.760;2023-04-01T04:06:53;98517.59;;;10.34;97.32
5753;BME280;2901;42.140;24.760;2023-04-01T04:09:18;98514.91;;;10.40;97.62
5753;BME280;2901;42.140;24.760;2023-04-01T04:11:44;98523.34;;;10.49;97.02
5753;BME280;2901;42.140;24.760;2023-04-01T04:14:09;98530.94;;;10.55;96.27
5753;BME280;2901;42.140;24.760;2023-04-01T04:16:35;98520.53;;;10.58;96.85
5753;BME280;2901;42.140;24.760;2023-04-01T04:19:02;98510.03;;;10.64;97.15
5753;BME280;2901;42.140;24.760;2023-04-01T04:21:28;98516.84;;;10.68;96.98
5753;BME280;2901;42.140;24.760;2023-04-01T04:23:54;98514.03;;;10.77;96.44
5753;BME280;2901;42.140;24.760;2023-04-01T04:26:20;98527.66;;;10.86;96.41
5753;BME280;2901;42.140;24.760;2023-04-01T04:28:45;98530.91;;;10.94;96.70
5753;BME280;2901;42.140;24.760;2023-04-01T04:31:11;98529.03;;;11.01;95.89
5753;BME280;2901;42.140;24.760;2023-04-01T04:33:36;98521.09;;;11.07;96.23
5753;BME280;2901;42.140;24.760;2023-04-01T04:36:03;98514.16;;;11.09;95.72
5753;BME280;2901;42.140;24.760;2023-04-01T04:38:29;98515.13;;;11.05;96.07
5753;BME280;2901;42.140;24.760;2023-04-01T04:40:54;98516.84;;;11.06;96.28
5753;BME280;2901;42.140;24.760;2023-04-01T04:43:20;98520.91;;;11.16;95.88
5753;BME280;2901;42.140;24.760;2023-04-01T04:45:45;98521.53;;;11.24;96.01
5753;BME280;2901;42.140;24.760;2023-04-01T04:48:13;98521.22;;;11.38;95.53
5753;BME280;2901;42.140;24.760;2023-04-01T04:50:42;98528.81;;;11.44;95.86
5753;BME280;2901;42.140;24.760;2023-04-01T04:53:11;98520.09;;;11.46;95.19
5753;BME280;2901;42.140;24.760;2023-04-01T04:55:37;98534.44;;;11.61;95.43
5753;BME280;2901;42.140;24.760;2023-04-01T04:58:02;98529.88;;;11.69;94.35
5753;BME280;2901;42.140;24.760;2023-04-01T05:00:28;98531.25;;;11.84;93.15
5753;BME280;2901;42.140;24.760;2023-04-01T05:02:53;98524.88;;;11.95;93.92
5753;BME280;2901;42.140;24.760;2023-04-01T05:05:18;98524.63;;;12.05;93.03
5753;BME280;2901;42.140;24.760;2023-04-01T05:07:44;98522.53;;;12.17;93.42
5753;BME280;2901;42.140;24.760;2023-04-01T05:10:09;98521.47;;;12.24;91.58
5753;BME280;2901;42.140;24.760;2023-04-01T05:12:35;98524.97;;;12.23;91.99
5753;BME280;2901;42.140;24.760;2023-04-01T05:15:06;98524.84;;;12.28;91.77
5753;BME280;2901;42.140;24.760;2023-04-01T05:17:32;98517.66;;;12.36;91.08
5753;BME280;2901;42.140;24.760;2023-04-01T05:19:57;98524.25;;;12.47;91.28
5753;BME280;2901;42.140;24.760;2023-04-01T05:22:23;98506.69;;;12.56;91.05
5753;BME280;2901;42.140;24.760;2023-04-01T05:24:48;98495.50;;;12.54;90.36
5753;BME280;2901;42.140;24.760;2023-04-01T05:27:14;98503.66;;;12.69;90.14
5753;BME280;2901;42.140;24.760;2023-04-01T05:29:39;98505.28;;;12.73;89.49
5753;BME280;2901;42.140;24.760;2023-04-01T05:32:05;98507.72;;;12.78;89.76
5753;BME280;2901;42.140;24.760;2023-04-01T05:34:30;98501.72;;;12.76;89.26
5753;BME280;2901;42.140;24.760;2023-04-01T05:36:55;98505.88;;;12.81;89.20
5753;BME280;2901;42.140;24.760;2023-04-01T05:39:21;98508.44;;;12.83;89.60
5753;BME280;2901;42.140;24.760;2023-04-01T05:41:46;98495.56;;;12.78;89.83
5753;BME280;2901;42.140;24.760;2023-04-01T05:44:12;98478.41;;;12.74;89.53
5753;BME280;2901;42.140;24.760;2023-04-01T05:46:37;98473.66;;;12.61;90.41
5753;BME280;2901;42.140;24.760;2023-04-01T05:49:03;98476.25;;;12.61;91.14
5753;BME280;2901;42.140;24.760;2023-04-01T05:51:28;98460.88;;;12.53;90.94
5753;BME280;2901;42.140;24.760;2023-04-01T05:53:54;98452.72;;;12.37;90.84
5753;BME280;2901;42.140;24.760;2023-04-01T05:56:19;98444.28;;;12.31;91.92
5753;BME280;2901;42.140;24.760;2023-04-01T05:58:46;98446.91;;;12.29;91.43
5753;BME280;2901;42.140;24.760;2023-04-01T06:01:15;98444.38;;;12.28;92.42
5753;BME280;2901;42.140;24.760;2023-04-01T06:03:41;98435.00;;;12.22;92.50
5753;BME280;2901;42.140;24.760;2023-04-01T06:06:13;98446.25;;;12.23;92.41
5753;BME280;2901;42.140;24.760;2023-04-01T06:08:40;98436.59;;;12.28;93.03
5753;BME280;2901;42.140;24.760;2023-04-01T06:22:45;98417.00;;;12.72;91.06
5753;BME280;2901;42.140;24.760;2023-04-01T06:28:05;98421.66;;;12.88;90.39
5753;BME280;2901;42.140;24.760;2023-04-01T06:30:50;98418.09;;;12.91;90.01
5753;BME280;2901;42.140;24.760;2023-04-01T06:45:13;98427.81;;;13.12;89.68
5753;BME280;2901;42.140;24.760;2023-04-01T06:54:03;98413.97;;;13.36;89.13
5753;BME280;2901;42.140;24.760;2023-04-01T06:56:30;98414.22;;;13.53;89.08
5753;BME280;2901;42.140;24.760;2023-04-01T06:59:04;98413.19;;;13.82;87.56
5753;BME280;2901;42.140;24.760;2023-04-01T07:01:41;98422.31;;;14.16;86.40
5753;BME280;2901;42.140;24.760;2023-04-01T07:04:23;98419.28;;;14.26;85.62
5753;BME280;2901;42.140;24.760;2023-04-01T07:06:56;98420.75;;;14.12;86.21
5753;BME280;2901;42.140;24.760;2023-04-01T07:09:27;98411.72;;;14.20;86.00
5753;BME280;2901;42.140;24.760;2023-04-01T07:12:00;98398.81;;;14.40;85.43
5753;BME280;2901;42.140;24.760;2023-04-01T07:14:32;98390.63;;;14.49;84.66
5753;BME280;2901;42.140;24.760;2023-04-01T07:17:12;98385.97;;;14.58;84.18
5753;BME280;2901;42.140;24.760;2023-04-01T07:19:47;98398.19;;;14.77;83.66
5753;BME280;2901;42.140;24.760;2023-04-01T07:22:38;98383.03;;;14.87;82.73
5753;BME280;2901;42.140;24.760;2023-04-01T07:25:16;98374.28;;;14.88;82.95
5753;BME280;2901;42.140;24.760;2023-04-01T07:27:43;98384.78;;;15.06;82.42
5753;BME280;2901;42.140;24.760;2023-04-01T07:30:17;98366.66;;;15.03;82.07
5753;BME280;2901;42.140;24.760;2023-04-01T07:35:32;98365.94;;;15.40;81.41
5753;BME280;2901;42.140;24.760;2023-04-01T07:41:01;98370.50;;;15.35;81.76
5753;BME280;2901;42.140;24.760;2023-04-01T07:46:07;98358.34;;;15.54;80.85
5753;BME280;2901;42.140;24.760;2023-04-01T07:48:45;98361.91;;;15.53;80.96
5753;BME280;2901;42.140;24.760;2023-04-01T07:51:55;98357.81;;;15.28;81.63
5753;BME280;2901;42.140;24.760;2023-04-01T07:57:26;98360.06;;;15.35;81.87
5753;BME280;2901;42.140;24.760;2023-04-01T07:59:57;98369.72;;;15.53;80.71
5753;BME280;2901;42.140;24.760;2023-04-01T08:05:29;98346.31;;;15.32;80.80
5753;BME280;2901;42.140;24.760;2023-04-01T08:13:26;98346.75;;;15.41;80.99
5753;BME280;2901;42.140;24.760;2023-04-01T08:18:51;98325.66;;;15.27;81.88
5753;BME280;2901;42.140;24.760;2023-04-01T08:21:30;98322.81;;;15.32;81.77
5753;BME280;2901;42.140;24.760;2023-04-01T08:23:59;98314.22;;;15.11;82.59
5753;BME280;2901;42.140;24.760;2023-04-01T08:28:55;98319.41;;;15.11;83.08
5753;BME280;2901;42.140;24.760;2023-04-01T08:31:58;98318.31;;;15.17;82.95
5753;BME280;2901;42.140;24.760;2023-04-01T08:34:34;98309.00;;;15.11;83.64
5753;BME280;2901;42.140;24.760;2023-04-01T08:37:08;98305.19;;;15.18;83.29
5753;BME280;2901;42.140;24.760;2023-04-01T08:39:45;98295.28;;;15.26;82.89
5753;BME280;2901;42.140;24.760;2023-04-01T08:50:12;98281.75;;;15.74;81.29
5753;BME280;2901;42.140;24.760;2023-04-01T09:00:47;98270.78;;;16.22;79.27
5753;BME280;2901;42.140;24.760;2023-04-01T09:03:49;98261.88;;;16.26;78.48
5753;BME280;2901;42.140;24.760;2023-04-01T09:06:24;98254.72;;;16.47;77.59
5753;BME280;2901;42.140;24.760;2023-04-01T09:14:30;98226.16;;;16.61;75.71
5753;BME280;2901;42.140;24.760;2023-04-01T09:28:28;98199.59;;;16.86;75.02
5753;BME280;2901;42.140;24.760;2023-04-01T09:34:03;98185.38;;;17.07;74.17
5753;BME280;2901;42.140;24.760;2023-04-01T09:36:44;98183.22;;;17.15;73.38
5753;BME280;2901;42.140;24.760;2023-04-01T09:39:37;98185.16;;;17.11;73.37
5753;BME280;2901;42.140;24.760;2023-04-01T09:48:05;98179.91;;;17.11;73.19
5753;BME280;2901;42.140;24.760;2023-04-01T09:53:36;98186.06;;;17.26;72.51
5753;BME280;2901;42.140;24.760;2023-04-01T10:13:34;98116.56;;;18.13;69.43
5753;BME280;2901;42.140;24.760;2023-04-01T10:38:03;98078.50;;;18.78;66.59
5753;BME280;2901;42.140;24.760;2023-04-01T10:43:44;98067.94;;;18.37;67.62
5753;BME280;2901;42.140;24.760;2023-04-01T11:17:22;97981.19;;;19.36;64.53
5753;BME280;2901;42.140;24.760;2023-04-01T11:33:14;97953.41;;;19.59;63.85
5753;BME280;2901;42.140;24.760;2023-04-01T11:38:53;97943.72;;;20.35;60.96
5753;BME280;2901;42.140;24.760;2023-04-01T11:46:33;97916.25;;;21.23;56.27
5753;BME280;2901;42.140;24.760;2023-04-01T12:16:43;97897.44;;;19.71;63.62
5753;BME280;2901;42.140;24.760;2023-04-01T12:19:28;97885.63;;;19.39;64.60
5753;BME280;2901;42.140;24.760;2023-04-01T12:39:55;97829.22;;;19.95;62.94
5753;BME280;2901;42.140;24.760;2023-04-01T12:45:47;97814.63;;;19.78;64.83
5753;BME280;2901;42.140;24.760;2023-04-01T12:51:36;97821.69;;;19.78;66.10
5753;BME280;2901;42.140;24.760;2023-04-01T13:05:23;97807.41;;;19.06;68.52
5753;BME280;2901;42.140;24.760;2023-04-01T13:13:18;97783.47;;;19.36;67.90
5753;BME280;2901;42.140;24.760;2023-04-01T13:15:54;97786.75;;;19.52;66.53
5753;BME280;2901;42.140;24.760;2023-04-01T13:21:49;97788.81;;;19.34;66.97
5753;BME280;2901;42.140;24.760;2023-04-01T13:29:38;97793.81;;;18.74;66.77
5753;BME280;2901;42.140;24.760;2023-04-01T13:42:47;97965.97;;;17.02;74.45
5753;BME280;2901;42.140;24.760;2023-04-01T13:56:57;98025.72;;;16.46;78.98
5753;BME280;2901;42.140;24.760;2023-04-01T14:02:50;98038.50;;;16.35;82.76
5753;BME280;2901;42.140;24.760;2023-04-01T14:08:29;98046.81;;;15.58;91.58
5753;BME280;2901;42.140;24.760;2023-04-01T14:11:17;98097.81;;;15.28;92.46
5753;BME280;2901;42.140;24.760;2023-04-01T14:22:11;98077.81;;;15.82;90.24
5753;BME280;2901;42.140;24.760;2023-04-01T14:24:52;98075.06;;;16.02;89.09
5753;BME280;2901;42.140;24.760;2023-04-01T14:27:43;98057.84;;;16.15;86.80
5753;BME280;2901;42.140;24.760;2023-04-01T14:33:10;98033.13;;;16.53;87.31
5753;BME280;2901;42.140;24.760;2023-04-01T14:35:49;98032.63;;;16.47;87.53
5753;BME280;2901;42.140;24.760;2023-04-01T14:41:24;98023.34;;;16.41;85.81
5753;BME280;2901;42.140;24.760;2023-04-01T14:44:01;98006.75;;;16.27;85.61
5753;BME280;2901;42.140;24.760;2023-04-01T14:49:04;98008.78;;;16.04;86.56
5753;BME280;2901;42.140;24.760;2023-04-01T14:51:39;97998.50;;;15.84;86.67
5753;BME280;2901;42.140;24.760;2023-04-01T14:54:16;97996.59;;;15.88;87.56
5753;BME280;2901;42.140;24.760;2023-04-01T14:57:04;98003.66;;;15.86;88.93
5753;BME280;2901;42.140;24.760;2023-04-01T14:59:30;98014.00;;;15.87;89.34
5753;BME280;2901;42.140;24.760;2023-04-01T15:01:58;98015.97;;;15.84;91.32
5753;BME280;2901;42.140;24.760;2023-04-01T15:18:03;98024.41;;;15.19;95.09
5753;BME280;2901;42.140;24.760;2023-04-01T15:28:46;98005.03;;;15.24;94.97
5753;BME280;2901;42.140;24.760;2023-04-01T15:34:11;97985.00;;;15.25;94.86
5753;BME280;2901;42.140;24.760;2023-04-01T15:42:42;97984.19;;;15.24;94.19
5753;BME280;2901;42.140;24.760;2023-04-01T15:48:28;97984.88;;;15.28;93.95
5753;BME280;2901;42.140;24.760;2023-04-01T16:02:31;97979.88;;;15.23;93.74
5753;BME280;2901;42.140;24.760;2023-04-01T16:10:49;97995.84;;;15.17;93.82
5753;BME280;2901;42.140;24.760;2023-04-01T16:21:21;98027.56;;;15.08;94.19
5753;BME280;2901;42.140;24.760;2023-04-01T16:23:55;98043.63;;;14.99;93.44
5753;BME280;2901;42.140;24.760;2023-04-01T16:26:37;98050.31;;;15.04;94.08
5753;BME280;2901;42.140;24.760;2023-04-01T16:29:27;98047.56;;;15.07;93.98
5753;BME280;2901;42.140;24.760;2023-04-01T16:34:46;98063.56;;;15.00;93.57
5753;BME280;2901;42.140;24.760;2023-04-01T16:37:49;98051.38;;;15.00;92.28
5753;BME280;2901;42.140;24.760;2023-04-01T16:40:42;98071.88;;;15.08;91.55
5753;BME280;2901;42.140;24.760;2023-04-01T16:43:13;98080.47;;;15.10;91.25
5753;BME280;2901;42.140;24.760;2023-04-01T16:45:53;98071.34;;;15.01;90.76
5753;BME280;2901;42.140;24.760;2023-04-01T16:48:59;98100.69;;;15.05;93.22
5753;BME280;2901;42.140;24.760;2023-04-01T16:51:37;98097.47;;;14.81;98.48
5753;BME280;2901;42.140;24.760;2023-04-01T16:56:54;98082.50;;;14.27;100.00
5753;BME280;2901;42.140;24.760;2023-04-01T16:59:38;98069.09;;;14.16;100.00
5753;BME280;2901;42.140;24.760;2023-04-01T17:02:13;98063.53;;;14.05;100.00
5753;BME280;2901;42.140;24.760;2023-04-01T17:04:49;98051.69;;;13.98;100.00
5753;BME280;2901;42.140;24.760;2023-04-01T17:10:03;98024.19;;;13.92;100.00
5753;BME280;2901;42.140;24.760;2023-04-01T17:23:37;98019.00;;;13.92;100.00
5753;BME280;2901;42.140;24.760;2023-04-01T17:26:06;98024.34;;;13.89;100.00
5753;BME280;2901;42.140;24.760;2023-04-01T17:31:07;98041.69;;;13.89;100.00
5753;BME280;2901;42.140;24.760;2023-04-01T17:41:32;98060.50;;;13.95;100.00
5753;BME280;2901;42.140;24.760;2023-04-01T17:47:11;98089.63;;;14.03;100.00
5753;BME280;2901;42.140;24.760;2023-04-01T17:52:42;98214.34;;;13.88;100.00
5753;BME280;2901;42.140;24.760;2023-04-01T17:55:25;98219.59;;;13.86;100.00
5753;BME280;2901;42.140;24.760;2023-04-01T18:00:50;98236.16;;;13.84;94.98
5753;BME280;2901;42.140;24.760;2023-04-01T18:09:26;98253.84;;;13.76;89.28
5753;BME280;2901;42.140;24.760;2023-04-01T18:25:32;98277.31;;;13.52;88.95
5753;BME280;2901;42.140;24.760;2023-04-01T18:30:44;98254.75;;;13.53;90.74
5753;BME280;2901;42.140;24.760;2023-04-01T18:39:16;98266.31;;;13.44;91.19
5753;BME280;2901;42.140;24.760;2023-04-01T18:42:19;98279.91;;;13.29;91.19
5753;BME280;2901;42.140;24.760;2023-04-01T18:44:56;98292.56;;;13.15;91.71
5753;BME280;2901;42.140;24.760;2023-04-01T18:47:45;98283.34;;;13.05;92.73
5753;BME280;2901;42.140;24.760;2023-04-01T18:50:40;98290.59;;;12.97;92.45
5753;BME280;2901;42.140;24.760;2023-04-01T18:53:10;98299.72;;;12.84;92.80
5753;BME280;2901;42.140;24.760;2023-04-01T18:55:46;98288.06;;;12.71;93.67
5753;BME280;2901;42.140;24.760;2023-04-01T19:01:42;98312.47;;;12.65;93.25
5753;BME280;2901;42.140;24.760;2023-04-01T19:04:30;98323.16;;;12.56;93.27
5753;BME280;2901;42.140;24.760;2023-04-01T19:07:00;98321.47;;;12.55;93.44
5753;BME280;2901;42.140;24.760;2023-04-01T19:09:31;98330.16;;;12.54;93.64
5753;BME280;2901;42.140;24.760;2023-04-01T19:12:07;98327.63;;;12.53;93.80
5753;BME280;2901;42.140;24.760;2023-04-01T19:25:51;98329.31;;;12.27;95.92
5753;BME280;2901;42.140;24.760;2023-04-01T19:28:26;98329.63;;;12.18;95.21
5753;BME280;2901;42.140;24.760;2023-04-01T19:30:59;98329.63;;;12.18;95.66
5753;BME280;2901;42.140;24.760;2023-04-01T19:33:40;98331.50;;;12.13;95.45
5753;BME280;2901;42.140;24.760;2023-04-01T19:36:19;98326.19;;;12.16;94.98
5753;BME280;2901;42.140;24.760;2023-04-01T19:41:31;98334.06;;;12.15;94.83
5753;BME280;2901;42.140;24.760;2023-04-01T19:44:12;98328.22;;;12.08;94.68
5753;BME280;2901;42.140;24.760;2023-04-01T19:54:45;98338.81;;;12.01;95.40
5753;BME280;2901;42.140;24.760;2023-04-01T20:04:54;98345.50;;;11.80;95.99
5753;BME280;2901;42.140;24.760;2023-04-01T20:07:31;98349.72;;;11.82;94.90
5753;BME280;2901;42.140;24.760;2023-04-01T20:10:08;98360.06;;;11.84;96.19
5753;BME280;2901;42.140;24.760;2023-04-01T20:13:05;98373.06;;;11.82;95.13
5753;BME280;2901;42.140;24.760;2023-04-01T20:18:24;98399.94;;;11.80;95.85
5753;BME280;2901;42.140;24.760;2023-04-01T20:20:54;98406.84;;;11.81;95.84
5753;BME280;2901;42.140;24.760;2023-04-01T20:23:45;98396.81;;;11.69;96.48
5753;BME280;2901;42.140;24.760;2023-04-01T20:26:12;98397.03;;;11.60;97.47
5753;BME280;2901;42.140;24.760;2023-04-01T20:31:29;98397.47;;;11.44;96.94
5753;BME280;2901;42.140;24.760;2023-04-01T20:39:40;98418.56;;;11.32;96.25
5753;BME280;2901;42.140;24.760;2023-04-01T20:45:24;98420.81;;;11.12;95.14
5753;BME280;2901;42.140;24.760;2023-04-01T20:50:51;98409.25;;;10.93;94.99
5753;BME280;2901;42.140;24.760;2023-04-01T20:53:34;98436.66;;;11.00;95.13
5753;BME280;2901;42.140;24.760;2023-04-01T20:59:36;98448.19;;;10.88;94.78
5753;BME280;2901;42.140;24.760;2023-04-01T21:11:18;98455.16;;;10.86;94.47
5753;BME280;2901;42.140;24.760;2023-04-01T21:14:01;98442.94;;;10.90;94.43
5753;BME280;2901;42.140;24.760;2023-04-01T21:30:42;98469.69;;;10.92;94.98
5753;BME280;2901;42.140;24.760;2023-04-01T21:44:51;98487.56;;;11.03;93.13
5753;BME280;2901;42.140;24.760;2023-04-01T21:47:55;98484.06;;;11.04;94.13
5753;BME280;2901;42.140;24.760;2023-04-01T21:56:17;98484.88;;;11.06;94.52
5753;BME280;2901;42.140;24.760;2023-04-01T22:09:41;98490.16;;;11.01;95.79
5753;BME280;2901;42.140;24.760;2023-04-01T22:12:15;98492.84;;;10.97;95.64
5753;BME280;2901;42.140;24.760;2023-04-01T22:17:53;98488.06;;;10.81;96.32
5753;BME280;2901;42.140;24.760;2023-04-01T22:26:48;98505.34;;;10.81;94.95
5753;BME280;2901;42.140;24.760;2023-04-01T22:31:56;98494.03;;;10.83;94.99
5753;BME280;2901;42.140;24.760;2023-04-01T22:34:39;98491.34;;;10.88;94.02
5753;BME280;2901;42.140;24.760;2023-04-01T22:53:36;98495.59;;;10.92;91.83
5753;BME280;2901;42.140;24.760;2023-04-01T22:56:13;98498.94;;;10.96;90.76
5753;BME280;2901;42.140;24.760;2023-04-01T23:01:47;98499.66;;;11.02;90.07
5753;BME280;2901;42.140;24.760;2023-04-01T23:04:22;98508.19;;;11.06;89.44
5753;BME280;2901;42.140;24.760;2023-04-01T23:06:53;98515.22;;;11.01;89.42
5753;BME280;2901;42.140;24.760;2023-04-01T23:09:27;98515.91;;;11.07;89.85
5753;BME280;2901;42.140;24.760;2023-04-01T23:12:02;98502.31;;;10.99;89.99
5753;BME280;2901;42.140;24.760;2023-04-01T23:14:37;98508.31;;;11.01;89.82
5753;BME280;2901;42.140;24.760;2023-04-01T23:19:41;98500.53;;;11.01;90.44
5753;BME280;2901;42.140;24.760;2023-04-01T23:22:29;98505.81;;;10.97;90.76
5753;BME280;2901;42.140;24.760;2023-04-01T23:33:29;98516.63;;;10.77;91.20
5753;BME280;2901;42.140;24.760;2023-04-01T23:36:02;98506.44;;;10.71;91.67
5753;BME280;2901;42.140;24.760;2023-04-01T23:38:38;98516.00;;;10.67;90.68
5753;BME280;2901;42.140;24.760;2023-04-01T23:41:05;98506.47;;;10.69;89.08
5753;BME280;2901;42.140;24.760;2023-04-01T23:43:36;98508.13;;;10.72;89.49
5753;BME280;2901;42.140;24.760;2023-04-01T23:46:04;98502.28;;;10.64;89.99
5753;BME280;2901;42.140;24.760;2023-04-01T23:48:36;98503.25;;;10.60;90.58